18 Jul 2018 03:01 UTC 2018199+03:01 UTC

Overview Datums Bench Marks Data Query Site Visit Daily QC Messages Attributes

170: National Park Service - Baffin Bay

27° 17' 49" N   97° 24' 17" W
NPSBB
United States National Park Service United States National Park Service

Station Information

National Park Service - Baffin Bay
National Park Service - Baffin Bay
more pictures
 
Station Name:National Park Service - Baffin Bay
DNR ID:170
Location:27° 17' 49" N, 97° 24' 17" W

Water Level Forecasts

Latest Observations

Series Metric English Marine Observed at
Water Temperature 31.4 °C 88.5 °F 88.5 °F Jul 17 21:42 CDT
00h13m ago
Salinity 31.000 psu 31.000 psu 31.000 psu Jul 17 21:42 CDT
00h13m ago
pH 8.73 pH 8.73 pH 8.73 pH Jul 17 21:42 CDT
00h13m ago
Turbidity 8 ntu 8 ntu 8 ntu Jul 17 21:42 CDT
00h13m ago
Dissolved Oxygen 4.06 mg/L 0.000253 lb/ft3 0.000253 lb/ft3 Jul 17 21:42 CDT
00h13m ago

Maps

National Park Service - Baffin Bay
All Stations in Area
Entire Network
 

Recent Observations

Date/Time Water
Temp (°F)
Sal (psu) pH (pH) Turb (ntu) DO (lb/ft3)
Jul 17 21:00 CDT 88.5 30.900 8.69 12 0.000313
Jul 17 20:00 CDT 89.1 31.000 8.67 6 0.000333
Jul 17 19:00 CDT 90.0 30.900 8.62 8 0.000321
Jul 17 18:00 CDT 90.9 30.900 8.57 9 0.000628
Jul 17 17:00 CDT 90.9 30.800 8.53 10 0.000384
Jul 17 16:00 CDT 90.3 30.800 8.46 10 0.000513
Jul 17 15:00 CDT 89.4 30.800 8.41 11 0.000293
Jul 17 14:00 CDT 88.2 30.700 8.36 10 0.000287
Jul 17 13:00 CDT 86.9 30.700 8.34 11 0.000830
Jul 17 12:00 CDT 85.6 30.600 8.35 11 0.000256
Jul 17 11:00 CDT 84.6 30.700 8.33 10 0.000180
Jul 17 10:00 CDT 83.1 30.600 8.35 9 0.000147
Jul 17 09:00 CDT 82.6 30.500 8.38 9 0.000182
Jul 17 08:00 CDT 82.6 30.400 8.39 9 0.000180
Jul 17 07:00 CDT 82.8 30.400 8.40 4 0.000181
Jul 17 06:00 CDT 82.2 30.700 8.41 4 0.000281
Jul 17 05:00 CDT 82.6 30.700 8.47 4 0.000297
Jul 17 04:00 CDT 82.9 30.800 8.52 4 0.000187
Jul 17 03:00 CDT 83.5 31.000 8.57 4 0.000179
Jul 17 02:00 CDT 83.7 31.100 8.61 4 0.000218
Jul 17 01:00 CDT 84.7 31.200 8.66 6 0.000220
Jul 17 00:00 CDT 86.0 31.000 8.63 5 0.000249
Jul 16 23:00 CDT 86.2 31.100 8.70 7 0.001058
Jul 16 22:00 CDT 86.7 31.200 8.77 7 0.000345
Jul 16 21:00 CDT 86.9 31.200 8.72 7 0.000312

Historical Data Availability